Time;durP1;ratioP1;P1;durP2;ratioP2;P2;SDS_P1;SDS_P2;PMS_P1;PMS_P2;Temp;Humidity;BMP_temperature;BMP_pressure;BME280_temperature;BME280_humidity;BME280_pressure;Samples;Min_cycle;Max_cycle;Signal;HPM_P1;HPM_P2
2023/08/31 00:01:37;;;;;;;12.20;9.90;;;;;;;;;;5086013;28;20484;-81
2023/08/31 00:04:08;;;;;;;11.53;9.13;;;;;;;;;;5087276;28;20685;-80
2023/08/31 00:06:36;;;;;;;10.00;8.20;;;;;;;;;;5084700;28;20476;-81
2023/08/31 00:09:09;;;;;;;10.13;8.47;;;;;;;;;;5082999;28;20942;-80
2023/08/31 00:11:36;;;;;;;11.97;9.53;;;;;;;;;;5085778;28;20658;-80
2023/08/31 00:14:05;;;;;;;12.77;9.70;;;;;;;;;;5083338;28;20477;-82
2023/08/31 00:16:34;;;;;;;11.67;9.00;;;;;;;;;;5085189;28;20448;-80
2023/08/31 00:19:03;;;;;;;11.20;9.33;;;;;;;;;;5087051;28;20432;-80
2023/08/31 00:21:31;;;;;;;13.33;9.37;;;;;;;;;;5085103;28;20485;-78
2023/08/31 00:24:00;;;;;;;11.90;9.10;;;;;;;;;;5087780;28;20444;-80
2023/08/31 00:26:30;;;;;;;11.70;9.50;;;;;;;;;;5085739;28;20464;-82
2023/08/31 00:28:59;;;;;;;11.73;8.60;;;;;;;;;;5088547;28;20457;-79
2023/08/31 00:31:28;;;;;;;10.17;8.60;;;;;;;;;;5089879;28;20437;-80
2023/08/31 00:33:57;;;;;;;13.67;9.50;;;;;;;;;;5087005;28;20453;-81
2023/08/31 00:36:28;;;;;;;12.20;9.47;;;;;;;;;;5088007;28;20469;-79
2023/08/31 00:38:56;;;;;;;11.83;10.50;;;;;;;;;;5087570;28;20468;-81
2023/08/31 00:41:24;;;;;;;12.90;8.40;;;;;;;;;;5088695;28;20488;-80
2023/08/31 00:43:54;;;;;;;10.43;9.20;;;;;;;;;;5087597;28;20569;-80
2023/08/31 00:46:21;;;;;;;10.80;8.50;;;;;;;;;;5089908;28;20424;-80
2023/08/31 00:48:50;;;;;;;10.90;9.37;;;;;;;;;;5087571;28;20441;-80
2023/08/31 00:51:17;;;;;;;12.30;9.80;;;;;;;;;;5087395;28;20484;-79
2023/08/31 00:53:45;;;;;;;10.50;8.33;;;;;;;;;;5090227;28;20437;-80
2023/08/31 00:56:29;;;;;;;12.03;10.17;;;;;;;;;;5084625;28;20555;-80
2023/08/31 00:58:58;;;;;;;12.03;9.33;;;;;;;;;;5089213;28;20482;-80
2023/08/31 01:01:29;;;;;;;10.47;9.30;;;;;;;;;;5083228;28;20487;-80
2023/08/31 01:04:01;;;;;;;10.63;8.30;;;;;;;;;;5088463;28;20460;-81
2023/08/31 01:06:37;;;;;;;13.40;8.83;;;;;;;;;;5066743;28;20462;-81
2023/08/31 01:09:10;;;;;;;10.40;8.20;;;;;;;;;;5084924;28;20470;-79
2023/08/31 01:11:45;;;;;;;11.70;9.40;;;;;;;;;;5085866;28;20457;-80
2023/08/31 01:14:18;;;;;;;12.13;9.67;;;;;;;;;;5084599;28;20448;-80
2023/08/31 01:16:48;;;;;;;10.73;8.87;;;;;;;;;;5084709;28;20462;-80
2023/08/31 01:19:25;;;;;;;11.67;8.57;;;;;;;;;;5086781;28;20463;-80
2023/08/31 01:21:54;;;;;;;10.80;8.90;;;;;;;;;;5085758;28;20583;-79
2023/08/31 01:24:24;;;;;;;12.60;8.87;;;;;;;;;;5089150;28;20459;-80
2023/08/31 01:26:52;;;;;;;14.40;8.70;;;;;;;;;;5087747;28;20794;-82
2023/08/31 01:29:20;;;;;;;11.53;9.20;;;;;;;;;;5088493;28;20484;-79
2023/08/31 01:31:48;;;;;;;11.33;8.93;;;;;;;;;;5088905;28;20494;-79
2023/08/31 01:34:16;;;;;;;11.63;9.03;;;;;;;;;;5086323;28;20479;-80
2023/08/31 01:36:46;;;;;;;12.17;9.53;;;;;;;;;;5090466;28;20571;-79
2023/08/31 01:39:16;;;;;;;11.67;9.87;;;;;;;;;;5086590;28;20479;-79
2023/08/31 01:41:48;;;;;;;11.57;9.33;;;;;;;;;;5089089;28;20499;-80
2023/08/31 01:44:17;;;;;;;13.77;8.27;;;;;;;;;;5088558;28;20448;-80
2023/08/31 01:46:47;;;;;;;12.33;9.70;;;;;;;;;;5087547;28;20461;-80
2023/08/31 01:49:15;;;;;;;13.20;8.80;;;;;;;;;;5090162;28;20449;-79
2023/08/31 01:51:42;;;;;;;12.70;9.30;;;;;;;;;;5086425;28;20513;-81
2023/08/31 01:54:10;;;;;;;15.50;9.27;;;;;;;;;;5091296;28;20487;-78
2023/08/31 01:56:38;;;;;;;11.60;10.03;;;;;;;;;;5088507;28;20887;-81
2023/08/31 01:59:08;;;;;;;11.03;8.50;;;;;;;;;;5091582;28;20544;-79
2023/08/31 02:01:36;;;;;;;12.30;9.97;;;;;;;;;;5090717;28;20523;-81
2023/08/31 02:04:03;;;;;;;10.20;8.50;;;;;;;;;;5089230;28;20760;-81
2023/08/31 02:06:31;;;;;;;15.17;8.90;;;;;;;;;;5088943;28;20491;-80
2023/08/31 02:08:58;;;;;;;12.43;8.90;;;;;;;;;;5087615;28;20486;-80
2023/08/31 02:11:26;;;;;;;10.73;7.70;;;;;;;;;;5087633;28;20452;-80
2023/08/31 02:13:54;;;;;;;13.83;8.50;;;;;;;;;;5089050;28;20715;-81
2023/08/31 02:16:23;;;;;;;12.53;8.83;;;;;;;;;;5084862;28;20455;-82
2023/08/31 02:18:53;;;;;;;12.77;7.93;;;;;;;;;;5089975;28;20428;-80
2023/08/31 02:21:22;;;;;;;10.40;7.70;;;;;;;;;;5084721;28;20496;-80
2023/08/31 02:23:50;;;;;;;11.40;8.30;;;;;;;;;;5088712;28;20468;-80
2023/08/31 02:26:17;;;;;;;11.17;8.00;;;;;;;;;;5085709;28;20472;-81
2023/08/31 02:28:45;;;;;;;13.00;7.90;;;;;;;;;;5085115;28;20494;-79
2023/08/31 02:31:13;;;;;;;10.87;7.63;;;;;;;;;;5085013;28;20460;-82
2023/08/31 02:33:44;;;;;;;10.80;8.30;;;;;;;;;;5081183;28;20468;-79
2023/08/31 02:36:11;;;;;;;12.90;8.40;;;;;;;;;;5085732;28;20486;-79
2023/08/31 02:38:39;;;;;;;9.17;6.40;;;;;;;;;;5086653;28;20456;-79
2023/08/31 02:41:07;;;;;;;10.67;7.20;;;;;;;;;;5083968;28;20958;-80
2023/08/31 02:43:34;;;;;;;9.27;6.00;;;;;;;;;;5087488;28;20638;-80
2023/08/31 02:46:02;;;;;;;8.70;6.50;;;;;;;;;;5086257;28;20440;-80
2023/08/31 02:48:30;;;;;;;9.07;6.70;;;;;;;;;;5089954;28;20657;-80
2023/08/31 02:51:02;;;;;;;10.47;5.77;;;;;;;;;;5085690;28;20494;-80
2023/08/31 02:53:30;;;;;;;11.23;6.67;;;;;;;;;;5088855;28;20451;-79
2023/08/31 02:55:57;;;;;;;13.27;6.87;;;;;;;;;;5083691;28;20517;-79
2023/08/31 02:58:26;;;;;;;9.90;6.10;;;;;;;;;;5088569;28;20487;-78
2023/08/31 03:00:54;;;;;;;8.60;5.37;;;;;;;;;;5084360;28;20526;-79
2023/08/31 03:03:24;;;;;;;8.67;5.73;;;;;;;;;;5085397;28;20467;-80
2023/08/31 03:05:57;;;;;;;8.07;5.23;;;;;;;;;;5083411;28;20448;-79
2023/08/31 03:08:26;;;;;;;11.17;7.03;;;;;;;;;;5085268;28;20461;-78
2023/08/31 03:10:54;;;;;;;8.07;5.43;;;;;;;;;;5085218;28;20448;-78
2023/08/31 03:13:22;;;;;;;9.03;5.70;;;;;;;;;;5085532;28;20963;-78
2023/08/31 03:15:50;;;;;;;8.10;5.43;;;;;;;;;;5084959;28;20893;-81
2023/08/31 03:18:17;;;;;;;12.03;6.03;;;;;;;;;;5083600;28;20453;-79
2023/08/31 03:20:45;;;;;;;11.00;6.53;;;;;;;;;;5085273;28;20452;-80
2023/08/31 03:23:12;;;;;;;8.70;4.80;;;;;;;;;;5083998;28;20464;-79
2023/08/31 03:25:41;;;;;;;9.50;5.77;;;;;;;;;;5087213;28;20744;-80
2023/08/31 03:28:09;;;;;;;10.83;5.37;;;;;;;;;;5083679;28;20483;-80
2023/08/31 03:30:37;;;;;;;7.60;4.80;;;;;;;;;;5084375;28;20896;-80
2023/08/31 03:33:04;;;;;;;9.40;4.93;;;;;;;;;;5084607;28;20468;-80
2023/08/31 03:35:33;;;;;;;7.27;5.20;;;;;;;;;;5087556;28;20485;-78
2023/08/31 03:38:01;;;;;;;7.23;5.00;;;;;;;;;;5085230;28;20851;-79
2023/08/31 03:40:29;;;;;;;11.50;5.90;;;;;;;;;;5085586;28;20459;-79
2023/08/31 03:42:58;;;;;;;8.17;5.20;;;;;;;;;;5086247;28;20476;-79
2023/08/31 03:45:25;;;;;;;6.83;4.50;;;;;;;;;;5084841;28;20516;-78
2023/08/31 03:47:53;;;;;;;8.57;5.30;;;;;;;;;;5084244;28;20448;-79
2023/08/31 03:50:20;;;;;;;9.00;4.80;;;;;;;;;;5084772;28;20452;-79
2023/08/31 03:52:48;;;;;;;7.53;4.33;;;;;;;;;;5083602;28;20490;-80
2023/08/31 03:55:15;;;;;;;9.43;4.97;;;;;;;;;;5083898;28;20445;-79
2023/08/31 03:57:43;;;;;;;7.47;4.87;;;;;;;;;;5082472;28;20488;-80
2023/08/31 04:00:15;;;;;;;7.33;4.83;;;;;;;;;;5084417;28;20453;-79
2023/08/31 04:02:44;;;;;;;7.60;5.00;;;;;;;;;;5084220;28;20677;-79
2023/08/31 04:05:11;;;;;;;7.27;4.77;;;;;;;;;;5083429;28;20904;-80
2023/08/31 04:07:39;;;;;;;7.03;4.07;;;;;;;;;;5084054;28;20491;-79
2023/08/31 04:10:07;;;;;;;6.17;3.87;;;;;;;;;;5082883;28;20449;-80
2023/08/31 04:12:35;;;;;;;9.07;4.23;;;;;;;;;;5082598;28;20472;-80
2023/08/31 04:15:04;;;;;;;7.73;4.27;;;;;;;;;;5081132;28;20448;-80
2023/08/31 04:17:32;;;;;;;10.17;4.67;;;;;;;;;;5083797;28;20440;-78
2023/08/31 04:20:00;;;;;;;6.23;4.37;;;;;;;;;;5084643;28;20449;-79
2023/08/31 04:22:28;;;;;;;6.13;4.37;;;;;;;;;;5081768;28;20553;-79
2023/08/31 04:24:55;;;;;;;5.23;4.07;;;;;;;;;;5082627;28;20540;-80
2023/08/31 04:27:23;;;;;;;7.10;4.30;;;;;;;;;;5079154;28;20457;-79
2023/08/31 04:29:50;;;;;;;7.00;4.00;;;;;;;;;;5082835;28;20456;-79
2023/08/31 04:32:18;;;;;;;12.73;4.13;;;;;;;;;;5077608;28;20568;-80
2023/08/31 04:34:47;;;;;;;10.30;4.10;;;;;;;;;;5080912;28;20533;-80
2023/08/31 04:37:14;;;;;;;5.70;3.97;;;;;;;;;;5078185;28;20512;-80
2023/08/31 04:39:42;;;;;;;8.90;3.87;;;;;;;;;;5080537;28;20749;-79
2023/08/31 04:42:09;;;;;;;12.40;4.90;;;;;;;;;;5081186;28;20512;-80
2023/08/31 04:44:37;;;;;;;8.17;4.63;;;;;;;;;;5081424;28;20452;-80
2023/08/31 04:47:05;;;;;;;8.67;4.70;;;;;;;;;;5083574;28;20472;-79
2023/08/31 04:49:32;;;;;;;6.53;4.80;;;;;;;;;;5083334;28;20473;-79
2023/08/31 04:52:25;;;;;;;8.00;5.27;;;;;;;;;;5083066;28;20441;-79
2023/08/31 04:54:54;;;;;;;8.50;5.07;;;;;;;;;;5081390;28;20488;-79
2023/08/31 04:57:21;;;;;;;7.10;4.57;;;;;;;;;;5081310;28;20452;-79
2023/08/31 04:59:49;;;;;;;7.60;4.67;;;;;;;;;;5082183;28;20457;-79
2023/08/31 05:02:17;;;;;;;9.97;6.20;;;;;;;;;;5081523;28;20617;-78
2023/08/31 05:04:45;;;;;;;8.63;5.60;;;;;;;;;;5080248;28;21047;-79
2023/08/31 05:07:13;;;;;;;6.60;4.60;;;;;;;;;;5082472;28;20447;-79
2023/08/31 05:09:41;;;;;;;6.87;4.80;;;;;;;;;;5082286;28;20475;-78
2023/08/31 05:12:10;;;;;;;8.30;5.90;;;;;;;;;;5080460;28;20480;-78
2023/08/31 05:14:39;;;;;;;7.53;5.70;;;;;;;;;;5081729;28;20509;-77
2023/08/31 05:17:07;;;;;;;10.07;6.20;;;;;;;;;;5077656;28;20452;-79
2023/08/31 05:19:34;;;;;;;8.50;4.67;;;;;;;;;;5083792;28;20868;-79
2023/08/31 05:22:02;;;;;;;10.40;5.93;;;;;;;;;;5079641;28;20480;-80
2023/08/31 05:24:29;;;;;;;13.87;8.73;;;;;;;;;;5085863;28;20456;-79
2023/08/31 05:26:57;;;;;;;10.90;5.83;;;;;;;;;;5080261;28;20571;-80
2023/08/31 05:29:26;;;;;;;9.13;5.47;;;;;;;;;;5077733;28;20480;-79
2023/08/31 05:31:53;;;;;;;7.43;5.97;;;;;;;;;;5081815;28;20637;-79
2023/08/31 05:34:23;;;;;;;9.67;5.53;;;;;;;;;;5076410;28;20543;-79
2023/08/31 05:36:50;;;;;;;8.87;5.10;;;;;;;;;;5081355;28;20444;-79
2023/08/31 05:39:18;;;;;;;10.43;6.63;;;;;;;;;;5079191;28;20515;-78
2023/08/31 05:41:45;;;;;;;10.53;5.80;;;;;;;;;;5078321;28;20586;-79
2023/08/31 05:44:13;;;;;;;7.93;5.17;;;;;;;;;;5079304;28;20518;-79
2023/08/31 05:46:42;;;;;;;6.77;4.87;;;;;;;;;;5076361;28;20428;-79
2023/08/31 05:49:09;;;;;;;9.83;5.30;;;;;;;;;;5073550;28;20444;-79
2023/08/31 05:51:37;;;;;;;10.23;5.13;;;;;;;;;;5082207;28;20460;-79
2023/08/31 05:54:05;;;;;;;9.10;4.90;;;;;;;;;;5078855;28;20444;-78
2023/08/31 05:56:32;;;;;;;6.50;4.67;;;;;;;;;;5076526;28;20453;-79
2023/08/31 05:59:05;;;;;;;6.03;4.70;;;;;;;;;;5076093;28;20461;-80
2023/08/31 06:01:33;;;;;;;8.93;5.57;;;;;;;;;;5078059;28;20445;-78
2023/08/31 06:04:03;;;;;;;6.03;5.27;;;;;;;;;;5080974;28;21061;-80
2023/08/31 06:06:32;;;;;;;6.07;4.80;;;;;;;;;;5080056;28;20657;-79
2023/08/31 06:09:00;;;;;;;10.40;5.10;;;;;;;;;;5076523;28;20807;-78
2023/08/31 06:11:28;;;;;;;8.10;5.43;;;;;;;;;;5077351;28;20993;-79
2023/08/31 06:13:55;;;;;;;7.83;4.90;;;;;;;;;;5080164;28;20488;-80
2023/08/31 06:16:24;;;;;;;8.90;4.17;;;;;;;;;;5055369;28;20489;-78
2023/08/31 06:18:51;;;;;;;9.10;4.63;;;;;;;;;;5057293;28;20454;-80
2023/08/31 06:21:20;;;;;;;9.37;6.23;;;;;;;;;;5057684;28;20450;-79
2023/08/31 06:23:48;;;;;;;8.90;4.87;;;;;;;;;;5058124;28;20496;-80
2023/08/31 06:26:15;;;;;;;6.67;4.30;;;;;;;;;;5082034;28;20443;-79
2023/08/31 06:28:43;;;;;;;10.50;4.30;;;;;;;;;;5076927;28;20487;-77
2023/08/31 06:31:11;;;;;;;6.23;4.00;;;;;;;;;;5076786;28;20445;-78
2023/08/31 06:33:38;;;;;;;8.20;4.50;;;;;;;;;;5081128;28;20477;-78
2023/08/31 06:36:06;;;;;;;6.60;4.40;;;;;;;;;;5081603;28;20452;-79
2023/08/31 06:38:35;;;;;;;12.87;4.83;;;;;;;;;;5076958;28;20441;-79
2023/08/31 06:41:04;;;;;;;6.10;4.50;;;;;;;;;;5087831;28;20726;-79
2023/08/31 06:43:35;;;;;;;6.37;4.60;;;;;;;;;;5083883;28;20484;-80
2023/08/31 06:46:03;;;;;;;9.53;5.07;;;;;;;;;;5091206;28;20613;-81
2023/08/31 06:48:32;;;;;;;11.00;4.60;;;;;;;;;;5083268;28;20852;-78
2023/08/31 06:51:00;;;;;;;11.90;5.00;;;;;;;;;;5088441;28;20528;-78
2023/08/31 06:53:29;;;;;;;9.33;4.63;;;;;;;;;;5082992;28;20453;-78
2023/08/31 06:56:13;;;;;;;8.60;4.90;;;;;;;;;;5081511;28;20453;-79
2023/08/31 06:58:45;;;;;;;10.30;5.90;;;;;;;;;;5083643;28;20502;-79
2023/08/31 07:01:15;;;;;;;6.53;4.30;;;;;;;;;;5086182;28;20453;-77
2023/08/31 07:03:43;;;;;;;7.10;5.33;;;;;;;;;;5081696;28;20488;-79
2023/08/31 07:06:14;;;;;;;7.60;4.90;;;;;;;;;;5085558;28;20466;-80
2023/08/31 07:12:05;;;;;;;12.70;4.67;;;;;;;;;;5073218;28;21000;-80
2023/08/31 07:14:44;;;;;;;7.53;4.80;;;;;;;;;;5045453;28;20522;-78
2023/08/31 07:17:17;;;;;;;6.70;4.83;;;;;;;;;;5041640;28;20462;-78
2023/08/31 07:19:46;;;;;;;6.53;4.90;;;;;;;;;;5044490;28;20681;-78
2023/08/31 07:22:14;;;;;;;9.73;4.67;;;;;;;;;;5043987;28;20478;-80
2023/08/31 07:24:42;;;;;;;6.20;4.30;;;;;;;;;;5042021;28;20546;-77
2023/08/31 07:30:09;;;;;;;5.97;4.00;;;;;;;;;;5043152;28;20442;-78
2023/08/31 07:32:37;;;;;;;8.70;4.93;;;;;;;;;;5037234;28;20485;-79
2023/08/31 07:35:07;;;;;;;7.10;4.67;;;;;;;;;;5039721;28;20552;-78
2023/08/31 07:37:37;;;;;;;11.00;3.90;;;;;;;;;;5030121;28;20450;-77
2023/08/31 07:40:09;;;;;;;6.60;4.00;;;;;;;;;;5029167;28;20458;-79
2023/08/31 07:42:37;;;;;;;6.40;3.90;;;;;;;;;;5035747;28;20496;-78
2023/08/31 07:45:12;;;;;;;5.20;3.17;;;;;;;;;;5035987;28;20439;-78
2023/08/31 07:47:39;;;;;;;6.63;3.87;;;;;;;;;;5037000;28;20469;-79
2023/08/31 07:50:08;;;;;;;4.13;2.83;;;;;;;;;;5030087;28;20496;-78
2023/08/31 07:52:37;;;;;;;5.00;2.60;;;;;;;;;;5017500;28;20509;-78
2023/08/31 07:55:05;;;;;;;3.93;2.60;;;;;;;;;;5022447;28;20485;-79
2023/08/31 07:57:34;;;;;;;5.97;2.10;;;;;;;;;;5035649;28;20482;-79
2023/08/31 08:00:11;;;;;;;3.90;2.93;;;;;;;;;;5038367;28;20462;-79
2023/08/31 08:02:41;;;;;;;5.80;2.90;;;;;;;;;;5043009;28;20801;-79
2023/08/31 08:05:10;;;;;;;5.40;3.53;;;;;;;;;;5043456;28;20458;-79
2023/08/31 08:07:42;;;;;;;3.03;2.43;;;;;;;;;;5044842;28;20481;-80
2023/08/31 08:10:10;;;;;;;5.10;3.00;;;;;;;;;;5041560;28;20500;-78
2023/08/31 08:12:43;;;;;;;5.63;2.93;;;;;;;;;;5049503;28;20476;-78
2023/08/31 08:15:17;;;;;;;5.90;2.40;;;;;;;;;;5081508;28;20550;-78
2023/08/31 08:17:59;;;;;;;7.50;3.77;;;;;;;;;;5075776;28;20738;-77
2023/08/31 08:20:27;;;;;;;5.47;3.00;;;;;;;;;;5073631;28;20444;-78
2023/08/31 08:22:55;;;;;;;7.63;4.50;;;;;;;;;;5079831;28;20519;-78
2023/08/31 08:25:30;;;;;;;5.80;3.50;;;;;;;;;;5080146;28;20492;-77
2023/08/31 08:27:58;;;;;;;4.03;3.40;;;;;;;;;;5070476;28;20534;-78
2023/08/31 08:30:25;;;;;;;7.53;4.60;;;;;;;;;;5074658;28;20452;-78
2023/08/31 08:32:55;;;;;;;6.87;3.97;;;;;;;;;;5087698;28;20449;-79
2023/08/31 08:35:37;;;;;;;8.23;4.77;;;;;;;;;;5082327;28;20756;-78
2023/08/31 08:51:46;;;;;;;4.73;2.50;;;;;;;;;;5112352;27;20495;-79
2023/08/31 08:54:23;;;;;;;2.77;1.57;;;;;;;;;;5105990;28;20444;-80
2023/08/31 08:56:51;;;;;;;5.80;2.20;;;;;;;;;;5102889;28;20503;-78
2023/08/31 08:59:19;;;;;;;3.80;2.73;;;;;;;;;;5100227;28;20490;-81
2023/08/31 09:01:47;;;;;;;4.47;2.40;;;;;;;;;;5097654;28;20463;-79
2023/08/31 09:04:16;;;;;;;4.13;2.20;;;;;;;;;;5103050;28;20482;-79
2023/08/31 09:06:48;;;;;;;3.23;2.10;;;;;;;;;;5110242;28;20456;-78
2023/08/31 09:09:16;;;;;;;3.73;2.00;;;;;;;;;;5097875;28;20449;-77
2023/08/31 09:11:55;;;;;;;3.10;1.60;;;;;;;;;;5094044;28;20467;-77
2023/08/31 09:14:23;;;;;;;3.53;2.00;;;;;;;;;;5087994;28;21074;-77
2023/08/31 09:16:52;;;;;;;4.63;1.60;;;;;;;;;;5093779;28;20564;-76
2023/08/31 09:19:20;;;;;;;3.07;2.00;;;;;;;;;;5096664;28;20471;-79
2023/08/31 09:21:50;;;;;;;3.00;1.50;;;;;;;;;;5095975;28;20897;-79
2023/08/31 09:24:19;;;;;;;4.00;1.50;;;;;;;;;;5094408;28;20464;-80
2023/08/31 09:26:47;;;;;;;2.93;1.57;;;;;;;;;;5100373;28;20561;-79
2023/08/31 09:29:15;;;;;;;4.53;2.60;;;;;;;;;;5096138;28;20487;-78
2023/08/31 09:31:46;;;;;;;3.57;1.50;;;;;;;;;;5098528;28;20460;-78
2023/08/31 09:34:16;;;;;;;4.33;1.30;;;;;;;;;;5097216;28;20464;-79
2023/08/31 09:36:45;;;;;;;2.30;1.40;;;;;;;;;;5097858;28;20463;-79
2023/08/31 09:39:17;;;;;;;2.57;1.13;;;;;;;;;;5098307;28;20570;-79
2023/08/31 09:41:59;;;;;;;3.37;2.03;;;;;;;;;;5094381;28;20511;-78
2023/08/31 09:44:26;;;;;;;2.83;1.50;;;;;;;;;;5092848;28;20474;-79
2023/08/31 09:46:54;;;;;;;5.60;1.80;;;;;;;;;;5099288;28;20447;-81
2023/08/31 09:49:27;;;;;;;3.30;2.00;;;;;;;;;;5112987;28;20439;-80
2023/08/31 09:51:55;;;;;;;2.70;1.80;;;;;;;;;;5104354;28;20451;-81
2023/08/31 09:54:26;;;;;;;4.30;2.63;;;;;;;;;;5080852;28;20529;-78
2023/08/31 09:56:58;;;;;;;6.83;2.30;;;;;;;;;;5077993;28;20496;-81
2023/08/31 09:59:25;;;;;;;3.80;2.57;;;;;;;;;;5077304;28;21192;-79
2023/08/31 10:01:56;;;;;;;6.37;4.47;;;;;;;;;;5081833;28;20776;-78
2023/08/31 10:04:24;;;;;;;5.20;2.37;;;;;;;;;;5078911;28;20461;-78
2023/08/31 10:06:53;;;;;;;3.73;1.97;;;;;;;;;;5078718;28;20799;-79
2023/08/31 10:09:26;;;;;;;2.27;1.50;;;;;;;;;;5077964;28;20484;-78
2023/08/31 10:12:02;;;;;;;4.00;1.70;;;;;;;;;;5082785;28;20452;-81
2023/08/31 10:14:34;;;;;;;3.20;1.33;;;;;;;;;;5083025;28;20452;-77
2023/08/31 10:19:48;;;;;;;2.83;1.60;;;;;;;;;;5063435;28;20567;-81
2023/08/31 10:22:16;;;;;;;3.43;2.30;;;;;;;;;;5069492;28;20915;-80
2023/08/31 10:25:00;;;;;;;4.13;1.83;;;;;;;;;;5072092;28;20464;-79
2023/08/31 10:27:30;;;;;;;4.07;2.27;;;;;;;;;;5080149;28;20466;-79
2023/08/31 10:30:24;;;;;;;2.43;1.73;;;;;;;;;;5087905;28;20471;-79
2023/08/31 10:33:03;;;;;;;2.90;1.43;;;;;;;;;;5082646;28;20472;-80
2023/08/31 10:35:42;;;;;;;3.07;1.83;;;;;;;;;;5081640;28;20457;-79
2023/08/31 10:41:27;;;;;;;3.53;1.87;;;;;;;;;;5061530;28;20489;-83
2023/08/31 10:43:58;;;;;;;5.47;2.30;;;;;;;;;;5081228;28;20475;-80
2023/08/31 10:46:34;;;;;;;3.33;2.17;;;;;;;;;;5077552;28;20778;-80
2023/08/31 10:49:02;;;;;;;3.10;1.97;;;;;;;;;;5061470;28;20476;-79
2023/08/31 10:51:31;;;;;;;4.50;2.20;;;;;;;;;;5067175;28;20515;-80
2023/08/31 10:54:10;;;;;;;3.57;1.70;;;;;;;;;;5077773;28;20469;-79
2023/08/31 10:57:13;;;;;;;3.10;1.40;;;;;;;;;;5075129;28;20465;-79
2023/08/31 10:59:46;;;;;;;3.60;2.10;;;;;;;;;;4979025;28;20879;-79
2023/08/31 11:02:29;;;;;;;3.03;2.00;;;;;;;;;;4976971;28;20477;-79
2023/08/31 11:04:57;;;;;;;2.97;2.03;;;;;;;;;;5039008;28;20456;-79
2023/08/31 11:07:28;;;;;;;4.03;1.43;;;;;;;;;;5076642;28;20568;-78
2023/08/31 11:10:08;;;;;;;1.90;1.30;;;;;;;;;;5078606;28;20500;-79
2023/08/31 11:12:36;;;;;;;2.27;1.67;;;;;;;;;;5080054;28;20908;-79
2023/08/31 11:15:06;;;;;;;2.70;1.53;;;;;;;;;;5082183;28;20449;-81
2023/08/31 11:17:46;;;;;;;3.10;1.40;;;;;;;;;;5083745;28;20490;-79
2023/08/31 11:20:31;;;;;;;2.60;1.47;;;;;;;;;;5079444;28;20871;-80
2023/08/31 11:23:19;;;;;;;2.50;1.20;;;;;;;;;;5079592;28;20495;-80
2023/08/31 11:25:55;;;;;;;4.20;1.43;;;;;;;;;;5078583;28;20480;-79
2023/08/31 11:28:26;;;;;;;3.23;1.43;;;;;;;;;;5078325;28;20433;-79
2023/08/31 11:30:56;;;;;;;2.47;1.40;;;;;;;;;;5081936;28;20713;-80
2023/08/31 11:33:23;;;;;;;2.27;1.20;;;;;;;;;;5080111;28;20449;-81
2023/08/31 11:35:51;;;;;;;2.87;1.50;;;;;;;;;;5078187;28;20476;-79
2023/08/31 11:38:20;;;;;;;2.27;1.20;;;;;;;;;;5079484;28;20862;-80
2023/08/31 11:40:59;;;;;;;2.17;0.90;;;;;;;;;;5085176;28;20604;-80
2023/08/31 11:44:02;;;;;;;2.00;1.17;;;;;;;;;;5087538;28;20507;-80
2023/08/31 11:46:34;;;;;;;2.47;1.20;;;;;;;;;;5059891;28;20479;-78
2023/08/31 11:49:06;;;;;;;3.57;1.50;;;;;;;;;;5077720;28;20460;-79
2023/08/31 11:51:35;;;;;;;1.90;1.17;;;;;;;;;;5072543;28;20501;-79
2023/08/31 11:54:03;;;;;;;1.77;0.87;;;;;;;;;;5078659;28;20557;-81
2023/08/31 11:56:42;;;;;;;3.00;1.77;;;;;;;;;;5072660;28;21091;-79
2023/08/31 11:59:18;;;;;;;4.33;1.20;;;;;;;;;;5073323;28;20459;-79
2023/08/31 12:01:50;;;;;;;2.10;0.93;;;;;;;;;;5074351;28;20825;-80
2023/08/31 12:04:25;;;;;;;2.27;1.23;;;;;;;;;;5072495;28;20458;-79
2023/08/31 12:07:09;;;;;;;4.70;3.07;;;;;;;;;;5080362;28;20461;-79
2023/08/31 12:09:52;;;;;;;2.97;1.30;;;;;;;;;;5086760;28;20766;-80
2023/08/31 12:12:26;;;;;;;2.17;1.40;;;;;;;;;;5083956;28;20470;-80
2023/08/31 12:14:57;;;;;;;3.37;1.13;;;;;;;;;;5082913;28;20464;-80
2023/08/31 12:17:27;;;;;;;2.40;1.40;;;;;;;;;;5076045;28;20462;-78
2023/08/31 12:20:09;;;;;;;4.47;2.80;;;;;;;;;;5088005;28;20452;-79
2023/08/31 12:22:37;;;;;;;3.77;1.90;;;;;;;;;;5075174;28;20463;-79
2023/08/31 12:25:06;;;;;;;3.17;2.03;;;;;;;;;;5082505;28;20454;-79
2023/08/31 12:27:44;;;;;;;2.80;1.17;;;;;;;;;;5092024;28;21046;-79
2023/08/31 12:30:28;;;;;;;2.10;1.30;;;;;;;;;;5080145;28;20505;-78
2023/08/31 12:33:09;;;;;;;2.70;1.37;;;;;;;;;;5059598;28;20991;-79
2023/08/31 12:35:43;;;;;;;2.20;1.40;;;;;;;;;;5097252;28;20453;-77
2023/08/31 12:38:14;;;;;;;2.90;1.20;;;;;;;;;;5082511;28;20436;-78
2023/08/31 12:40:45;;;;;;;2.40;1.40;;;;;;;;;;5090392;28;20495;-80
2023/08/31 12:43:13;;;;;;;2.50;1.50;;;;;;;;;;5074663;28;20461;-78
2023/08/31 12:45:43;;;;;;;3.00;1.50;;;;;;;;;;5074689;28;20463;-79
2023/08/31 12:48:13;;;;;;;3.40;1.97;;;;;;;;;;5079993;28;20456;-79
2023/08/31 12:50:41;;;;;;;2.80;1.40;;;;;;;;;;5091424;28;20574;-79
2023/08/31 12:53:22;;;;;;;2.30;1.40;;;;;;;;;;5074368;28;20548;-78
2023/08/31 12:55:50;;;;;;;3.23;1.73;;;;;;;;;;5062522;28;20459;-78
2023/08/31 12:58:23;;;;;;;4.30;1.60;;;;;;;;;;5077492;28;20487;-78
2023/08/31 13:00:53;;;;;;;2.53;1.60;;;;;;;;;;5074179;28;20651;-77
2023/08/31 13:03:22;;;;;;;2.70;1.50;;;;;;;;;;5079909;28;20689;-79
2023/08/31 13:05:51;;;;;;;3.50;2.30;;;;;;;;;;5081866;28;20464;-78
2023/08/31 13:08:23;;;;;;;2.90;1.60;;;;;;;;;;5079555;28;20448;-80
2023/08/31 13:10:54;;;;;;;3.00;1.10;;;;;;;;;;5080205;28;20465;-79
2023/08/31 13:13:22;;;;;;;3.50;1.20;;;;;;;;;;5078063;28;20453;-79
2023/08/31 13:15:50;;;;;;;4.30;1.97;;;;;;;;;;5088204;28;20462;-79
2023/08/31 13:18:18;;;;;;;1.80;1.23;;;;;;;;;;5089746;28;20893;-79
2023/08/31 13:21:05;;;;;;;4.50;1.50;;;;;;;;;;5077587;28;20476;-78
2023/08/31 13:23:48;;;;;;;1.87;1.10;;;;;;;;;;5090639;28;20485;-77
2023/08/31 13:29:43;;;;;;;1.97;1.03;;;;;;;;;;5066751;28;20548;-80
2023/08/31 13:32:15;;;;;;;2.83;0.90;;;;;;;;;;5082171;28;20456;-80
2023/08/31 13:38:04;;;;;;;5.70;1.50;;;;;;;;;;5079757;28;20451;-79
2023/08/31 13:40:39;;;;;;;3.37;0.97;;;;;;;;;;5085902;28;20496;-80
2023/08/31 13:43:08;;;;;;;2.13;1.10;;;;;;;;;;5087052;28;20447;-80
2023/08/31 13:45:39;;;;;;;2.30;1.03;;;;;;;;;;5067253;28;20456;-79
2023/08/31 13:48:16;;;;;;;3.20;0.97;;;;;;;;;;5082657;28;20508;-79
2023/08/31 13:50:49;;;;;;;4.43;1.30;;;;;;;;;;5075163;28;20496;-80
2023/08/31 13:53:18;;;;;;;2.57;0.80;;;;;;;;;;5081054;28;20433;-78
2023/08/31 13:55:47;;;;;;;3.90;1.03;;;;;;;;;;5097178;28;20498;-80
2023/08/31 13:58:15;;;;;;;1.93;0.77;;;;;;;;;;5082041;28;20456;-80
2023/08/31 14:00:46;;;;;;;3.93;0.80;;;;;;;;;;5087691;28;20567;-80
2023/08/31 14:03:31;;;;;;;2.40;1.00;;;;;;;;;;5086598;28;20499;-79
2023/08/31 14:06:07;;;;;;;2.10;1.00;;;;;;;;;;5072864;28;20863;-80
2023/08/31 14:08:40;;;;;;;2.80;1.27;;;;;;;;;;5079090;28;20456;-79
2023/08/31 14:11:12;;;;;;;3.30;0.80;;;;;;;;;;5086570;28;20954;-78
2023/08/31 14:13:49;;;;;;;3.70;1.10;;;;;;;;;;5082889;28;20456;-79
2023/08/31 14:16:16;;;;;;;2.10;1.00;;;;;;;;;;5084372;28;20907;-81
2023/08/31 14:18:46;;;;;;;2.93;0.80;;;;;;;;;;5080209;28;20445;-80
2023/08/31 14:21:16;;;;;;;2.60;1.27;;;;;;;;;;5077302;28;20487;-80
2023/08/31 14:24:06;;;;;;;5.63;1.43;;;;;;;;;;5083106;28;20820;-81
2023/08/31 14:26:36;;;;;;;5.70;1.23;;;;;;;;;;5072594;28;20468;-82
2023/08/31 14:29:10;;;;;;;3.70;1.17;;;;;;;;;;5083959;28;20445;-81
2023/08/31 14:31:46;;;;;;;3.10;1.17;;;;;;;;;;5077455;28;20452;-79
2023/08/31 14:41:10;;;;;;;;;;;;;;;;;;;;;
2023/08/31 14:43:41;;;;;;;3.40;0.90;;;;;;;;;;5083513;28;20448;-79
2023/08/31 14:46:12;;;;;;;3.90;1.20;;;;;;;;;;5078900;28;20528;-80
2023/08/31 14:48:39;;;;;;;3.70;1.00;;;;;;;;;;5085101;28;20444;-78
2023/08/31 14:56:52;;;;;;;2.40;0.70;;;;;;;;;;5085473;28;20531;-78
2023/08/31 15:02:01;;;;;;;3.07;0.80;;;;;;;;;;5118010;22;20587;-80
2023/08/31 15:04:31;;;;;;;2.87;0.90;;;;;;;;;;4964896;28;20458;-80
2023/08/31 15:07:04;;;;;;;10.23;6.77;;;;;;;;;;4981384;28;20545;-81
2023/08/31 15:09:32;;;;;;;8.10;5.60;;;;;;;;;;4981356;28;20592;-81
2023/08/31 15:12:00;;;;;;;2.33;0.80;;;;;;;;;;4982083;28;20572;-80
2023/08/31 15:17:29;;;;;;;7.10;1.67;;;;;;;;;;4981558;28;20473;-80
2023/08/31 15:19:58;;;;;;;7.30;3.37;;;;;;;;;;4973835;28;20491;-80
2023/08/31 15:22:33;;;;;;;4.53;1.47;;;;;;;;;;4971054;28;20488;-80
2023/08/31 15:25:09;;;;;;;1.70;0.60;;;;;;;;;;4979059;28;20479;-79
2023/08/31 15:27:44;;;;;;;1.63;0.70;;;;;;;;;;4977491;28;20529;-82
2023/08/31 15:33:47;;;;;;;2.60;1.20;;;;;;;;;;4943442;28;20448;-79
2023/08/31 15:36:24;;;;;;;4.40;0.80;;;;;;;;;;4980308;28;20555;-80
2023/08/31 15:38:52;;;;;;;2.70;1.00;;;;;;;;;;4982109;28;20467;-80
2023/08/31 15:41:28;;;;;;;2.27;1.00;;;;;;;;;;4966437;28;20570;-80
2023/08/31 15:43:58;;;;;;;2.17;0.93;;;;;;;;;;4980330;28;20465;-80
2023/08/31 15:46:27;;;;;;;2.00;0.90;;;;;;;;;;4983226;28;20551;-79
2023/08/31 15:48:55;;;;;;;1.50;0.67;;;;;;;;;;4981888;28;20484;-80
2023/08/31 15:51:28;;;;;;;4.67;0.90;;;;;;;;;;4974907;28;20472;-81
2023/08/31 15:53:56;;;;;;;2.00;0.80;;;;;;;;;;4977822;28;20472;-79
2023/08/31 15:56:24;;;;;;;2.17;0.80;;;;;;;;;;4979173;28;20449;-80